sensor_id;sensor_type;location;lat;lon;timestamp;pressure;altitude;pressure_sealevel;temperature;humidity
11017;BME280;54687;50.800;6.772;2022-09-03T00:02:18;60728.19;;;-144.06;39.63
11017;BME280;54687;50.800;6.772;2022-09-03T00:04:52;60726.09;;;-144.06;39.61
11017;BME280;54687;50.800;6.772;2022-09-03T00:07:29;60721.91;;;-144.06;39.61
11017;BME280;54687;50.800;6.772;2022-09-03T00:10:02;60749.16;;;-144.06;39.64
11017;BME280;54687;50.800;6.772;2022-09-03T00:12:32;60698.84;;;-144.06;39.69
11017;BME280;54687;50.800;6.772;2022-09-03T00:15:06;60738.66;;;-144.06;39.45
11017;BME280;54687;50.800;6.772;2022-09-03T00:17:37;60736.56;;;-144.06;39.69
11017;BME280;54687;50.800;6.772;2022-09-03T00:20:10;60742.84;;;-144.06;39.70
11017;BME280;54687;50.800;6.772;2022-09-03T00:22:40;60780.59;;;-144.06;39.71
11017;BME280;54687;50.800;6.772;2022-09-03T00:25:12;60757.53;;;-144.06;39.68
11017;BME280;54687;50.800;6.772;2022-09-03T00:27:42;60740.75;;;-144.06;39.66
11017;BME280;54687;50.800;6.772;2022-09-03T00:30:13;60736.56;;;-144.06;39.71
11017;BME280;54687;50.800;6.772;2022-09-03T00:32:44;60742.84;;;-144.06;39.80
11017;BME280;54687;50.800;6.772;2022-09-03T00:35:15;60751.25;;;-144.06;39.76
11017;BME280;54687;50.800;6.772;2022-09-03T00:37:45;60719.81;;;-144.06;39.85
11017;BME280;54687;50.800;6.772;2022-09-03T00:40:20;60749.16;;;-144.06;39.99
11017;BME280;54687;50.800;6.772;2022-09-03T00:42:57;60744.94;;;-144.06;40.00
11017;BME280;54687;50.800;6.772;2022-09-03T00:45:32;60761.72;;;-144.06;39.92
11017;BME280;54687;50.800;6.772;2022-09-03T00:48:11;60724.00;;;-144.06;39.83
11017;BME280;54687;50.800;6.772;2022-09-03T00:50:49;60776.41;;;-144.06;39.87
11017;BME280;54687;50.800;6.772;2022-09-03T00:53:31;60778.50;;;-144.06;40.03
11017;BME280;54687;50.800;6.772;2022-09-03T00:56:04;60757.53;;;-144.06;39.85
11017;BME280;54687;50.800;6.772;2022-09-03T00:58:56;60778.50;;;-144.06;40.00
11017;BME280;54687;50.800;6.772;2022-09-03T01:01:33;60736.56;;;-144.06;39.92
11017;BME280;54687;50.800;6.772;2022-09-03T01:04:10;60770.09;;;-144.06;40.00
11017;BME280;54687;50.800;6.772;2022-09-03T01:06:47;60719.81;;;-144.06;40.08
11017;BME280;54687;50.800;6.772;2022-09-03T01:09:28;60736.56;;;-144.06;40.31
11017;BME280;54687;50.800;6.772;2022-09-03T01:12:06;60732.38;;;-144.06;40.17
11017;BME280;54687;50.800;6.772;2022-09-03T01:14:46;60740.75;;;-144.06;40.49
11017;BME280;54687;50.800;6.772;2022-09-03T01:17:23;60795.25;;;-144.06;40.35
11017;BME280;54687;50.800;6.772;2022-09-03T01:20:11;60763.81;;;-144.06;40.57
11017;BME280;54687;50.800;6.772;2022-09-03T01:23:20;60711.41;;;-144.06;40.83
11017;BME280;54687;50.800;6.772;2022-09-03T01:25:57;60751.25;;;-144.06;40.83
11017;BME280;54687;50.800;6.772;2022-09-03T01:28:40;60753.34;;;-144.06;41.04
11017;BME280;54687;50.800;6.772;2022-09-03T01:31:16;60784.78;;;-144.06;41.38
11017;BME280;54687;50.800;6.772;2022-09-03T01:33:50;60778.50;;;-144.06;41.13
11017;BME280;54687;50.800;6.772;2022-09-03T01:36:23;60715.59;;;-144.06;41.22
11017;BME280;54687;50.800;6.772;2022-09-03T01:38:59;60757.53;;;-144.06;41.26
11017;BME280;54687;50.800;6.772;2022-09-03T01:41:38;60765.91;;;-144.06;41.51
11017;BME280;54687;50.800;6.772;2022-09-03T01:44:32;60753.34;;;-144.06;41.38
11017;BME280;54687;50.800;6.772;2022-09-03T01:47:10;60728.19;;;-144.06;41.50
11017;BME280;54687;50.800;6.772;2022-09-03T01:49:41;60757.53;;;-144.06;41.44
11017;BME280;54687;50.800;6.772;2022-09-03T01:52:14;60757.53;;;-144.06;41.61
11017;BME280;54687;50.800;6.772;2022-09-03T01:54:57;60768.00;;;-144.06;41.95
11017;BME280;54687;50.800;6.772;2022-09-03T01:57:38;60765.91;;;-144.06;42.04
11017;BME280;54687;50.800;6.772;2022-09-03T02:00:10;60795.25;;;-144.06;41.92
11017;BME280;54687;50.800;6.772;2022-09-03T02:02:39;60772.19;;;-144.06;41.91
11017;BME280;54687;50.800;6.772;2022-09-03T02:05:09;60755.44;;;-144.06;41.97
11017;BME280;54687;50.800;6.772;2022-09-03T02:07:38;60782.69;;;-144.06;41.90
11017;BME280;54687;50.800;6.772;2022-09-03T02:10:07;60726.09;;;-144.06;42.25
11017;BME280;54687;50.800;6.772;2022-09-03T02:12:35;60780.59;;;-144.06;42.19
11017;BME280;54687;50.800;6.772;2022-09-03T02:15:07;60774.28;;;-144.06;42.58
11017;BME280;54687;50.800;6.772;2022-09-03T02:17:39;60768.00;;;-144.06;42.38
11017;BME280;54687;50.800;6.772;2022-09-03T02:20:09;60784.78;;;-144.06;42.77
11017;BME280;54687;50.800;6.772;2022-09-03T02:22:37;60736.56;;;-144.06;42.54
11017;BME280;54687;50.800;6.772;2022-09-03T02:25:05;60753.34;;;-144.06;42.74
11017;BME280;54687;50.800;6.772;2022-09-03T02:27:32;60759.63;;;-144.06;42.55
11017;BME280;54687;50.800;6.772;2022-09-03T02:30:00;60761.72;;;-144.06;42.68
11017;BME280;54687;50.800;6.772;2022-09-03T02:32:27;60765.91;;;-144.06;42.55
11017;BME280;54687;50.800;6.772;2022-09-03T02:34:55;60774.28;;;-144.06;42.95
11017;BME280;54687;50.800;6.772;2022-09-03T02:37:22;60791.06;;;-144.06;43.12
11017;BME280;54687;50.800;6.772;2022-09-03T02:39:49;60799.44;;;-144.06;43.26
11017;BME280;54687;50.800;6.772;2022-09-03T02:42:17;60795.25;;;-144.06;43.26
11017;BME280;54687;50.800;6.772;2022-09-03T02:44:47;60812.03;;;-144.06;43.22
11017;BME280;54687;50.800;6.772;2022-09-03T02:47:16;60782.69;;;-144.06;43.29
11017;BME280;54687;50.800;6.772;2022-09-03T02:49:45;60765.91;;;-144.06;43.41
11017;BME280;54687;50.800;6.772;2022-09-03T02:52:13;60791.06;;;-144.06;43.33
11017;BME280;54687;50.800;6.772;2022-09-03T02:54:40;60751.25;;;-144.06;43.22
11017;BME280;54687;50.800;6.772;2022-09-03T02:57:10;60715.59;;;-144.06;43.61
11017;BME280;54687;50.800;6.772;2022-09-03T02:59:37;60742.84;;;-144.06;43.36
11017;BME280;54687;50.800;6.772;2022-09-03T03:02:06;60770.09;;;-144.06;43.56
11017;BME280;54687;50.800;6.772;2022-09-03T03:04:32;60786.88;;;-144.06;43.54
11017;BME280;54687;50.800;6.772;2022-09-03T03:06:59;60778.50;;;-144.06;43.33
11017;BME280;54687;50.800;6.772;2022-09-03T03:09:27;60770.09;;;-144.06;43.45
11017;BME280;54687;50.800;6.772;2022-09-03T03:11:54;60784.78;;;-144.06;43.46
11017;BME280;54687;50.800;6.772;2022-09-03T03:14:21;60765.91;;;-144.06;43.56
11017;BME280;54687;50.800;6.772;2022-09-03T03:16:48;60761.72;;;-144.06;43.29
11017;BME280;54687;50.800;6.772;2022-09-03T03:19:16;60749.16;;;-144.06;43.54
11017;BME280;54687;50.800;6.772;2022-09-03T03:21:43;60751.25;;;-144.06;43.51
11017;BME280;54687;50.800;6.772;2022-09-03T03:24:10;60763.81;;;-144.06;43.31
11017;BME280;54687;50.800;6.772;2022-09-03T03:26:38;60770.09;;;-144.06;43.46
11017;BME280;54687;50.800;6.772;2022-09-03T03:29:05;60736.56;;;-144.06;43.54
11017;BME280;54687;50.800;6.772;2022-09-03T03:31:33;60757.53;;;-144.06;43.66
11017;BME280;54687;50.800;6.772;2022-09-03T03:34:01;60736.56;;;-144.06;43.60
11017;BME280;54687;50.800;6.772;2022-09-03T03:36:30;60778.50;;;-144.06;43.79
11017;BME280;54687;50.800;6.772;2022-09-03T03:38:59;60765.91;;;-144.06;43.88
11017;BME280;54687;50.800;6.772;2022-09-03T03:41:27;60755.44;;;-144.06;43.86
11017;BME280;54687;50.800;6.772;2022-09-03T03:43:58;60757.53;;;-144.06;43.89
11017;BME280;54687;50.800;6.772;2022-09-03T03:46:29;60799.44;;;-144.06;43.96
11017;BME280;54687;50.800;6.772;2022-09-03T03:48:57;60774.28;;;-144.06;43.63
11017;BME280;54687;50.800;6.772;2022-09-03T03:51:24;60751.25;;;-144.06;43.61
11017;BME280;54687;50.800;6.772;2022-09-03T03:53:53;60786.88;;;-144.06;43.67
11017;BME280;54687;50.800;6.772;2022-09-03T03:56:20;60782.69;;;-144.06;43.51
11017;BME280;54687;50.800;6.772;2022-09-03T03:58:47;60761.72;;;-144.06;43.53
11017;BME280;54687;50.800;6.772;2022-09-03T04:01:16;60795.25;;;-144.06;43.44
11017;BME280;54687;50.800;6.772;2022-09-03T04:03:43;60757.53;;;-144.06;43.29
11017;BME280;54687;50.800;6.772;2022-09-03T04:06:13;60786.88;;;-144.06;43.28
11017;BME280;54687;50.800;6.772;2022-09-03T04:08:42;60778.50;;;-144.06;43.29
11017;BME280;54687;50.800;6.772;2022-09-03T04:11:11;60744.94;;;-144.06;43.02
11017;BME280;54687;50.800;6.772;2022-09-03T04:13:40;60774.28;;;-144.06;43.14
11017;BME280;54687;50.800;6.772;2022-09-03T04:16:09;60753.34;;;-144.06;43.06
11017;BME280;54687;50.800;6.772;2022-09-03T04:18:38;60744.94;;;-144.06;43.20
11017;BME280;54687;50.800;6.772;2022-09-03T04:21:07;60786.88;;;-144.06;43.00
11017;BME280;54687;50.800;6.772;2022-09-03T04:23:35;60839.28;;;-144.06;43.01
11017;BME280;54687;50.800;6.772;2022-09-03T04:26:03;60757.53;;;-144.06;43.07
11017;BME280;54687;50.800;6.772;2022-09-03T04:28:30;60724.00;;;-144.06;43.02
11017;BME280;54687;50.800;6.772;2022-09-03T04:31:00;60761.72;;;-144.06;43.10
11017;BME280;54687;50.800;6.772;2022-09-03T04:33:27;60786.88;;;-144.06;43.08
11017;BME280;54687;50.800;6.772;2022-09-03T04:36:03;60818.31;;;-144.06;43.07
11017;BME280;54687;50.800;6.772;2022-09-03T04:38:31;60774.28;;;-144.06;42.83
11017;BME280;54687;50.800;6.772;2022-09-03T04:40:58;60770.09;;;-144.06;42.99
11017;BME280;54687;50.800;6.772;2022-09-03T04:43:26;60772.19;;;-144.06;42.75
11017;BME280;54687;50.800;6.772;2022-09-03T04:45:56;60757.53;;;-144.06;42.87
11017;BME280;54687;50.800;6.772;2022-09-03T04:48:24;60761.72;;;-144.06;42.82
11017;BME280;54687;50.800;6.772;2022-09-03T04:50:50;60749.16;;;-144.06;42.80
11017;BME280;54687;50.800;6.772;2022-09-03T04:53:18;60791.06;;;-144.06;42.71
11017;BME280;54687;50.800;6.772;2022-09-03T04:55:45;60757.53;;;-144.06;42.78
11017;BME280;54687;50.800;6.772;2022-09-03T04:58:11;60751.25;;;-144.06;42.75
11017;BME280;54687;50.800;6.772;2022-09-03T05:00:38;60791.06;;;-144.06;42.75
11017;BME280;54687;50.800;6.772;2022-09-03T05:03:05;60761.72;;;-144.06;42.58
11017;BME280;54687;50.800;6.772;2022-09-03T05:05:32;60738.66;;;-144.06;42.68
11017;BME280;54687;50.800;6.772;2022-09-03T05:07:59;60736.56;;;-144.06;42.56
11017;BME280;54687;50.800;6.772;2022-09-03T05:10:27;60755.44;;;-144.06;42.61
11017;BME280;54687;50.800;6.772;2022-09-03T05:12:58;60770.09;;;-144.06;42.71
11017;BME280;54687;50.800;6.772;2022-09-03T05:15:24;60755.44;;;-144.06;42.70
11017;BME280;54687;50.800;6.772;2022-09-03T05:17:55;60755.44;;;-144.06;42.83
11017;BME280;54687;50.800;6.772;2022-09-03T05:20:21;60732.38;;;-144.06;42.73
11017;BME280;54687;50.800;6.772;2022-09-03T05:22:48;60732.38;;;-144.06;42.81
11017;BME280;54687;50.800;6.772;2022-09-03T05:25:15;60788.97;;;-144.06;42.85
11017;BME280;54687;50.800;6.772;2022-09-03T05:27:43;60772.19;;;-144.06;43.02
11017;BME280;54687;50.800;6.772;2022-09-03T05:30:11;60770.09;;;-144.06;42.96
11017;BME280;54687;50.800;6.772;2022-09-03T05:32:38;60778.50;;;-144.06;43.17
11017;BME280;54687;50.800;6.772;2022-09-03T05:35:07;60778.50;;;-144.06;43.36
11017;BME280;54687;50.800;6.772;2022-09-03T05:37:33;60732.38;;;-144.06;43.29
11017;BME280;54687;50.800;6.772;2022-09-03T05:40:00;60778.50;;;-144.06;43.29
11017;BME280;54687;50.800;6.772;2022-09-03T05:42:28;60795.25;;;-144.06;43.42
11017;BME280;54687;50.800;6.772;2022-09-03T05:45:00;60763.81;;;-144.06;43.49
11017;BME280;54687;50.800;6.772;2022-09-03T05:47:28;60753.34;;;-144.06;43.33
11017;BME280;54687;50.800;6.772;2022-09-03T05:49:55;60770.09;;;-144.06;43.17
11017;BME280;54687;50.800;6.772;2022-09-03T05:52:21;60786.88;;;-144.06;43.15
11017;BME280;54687;50.800;6.772;2022-09-03T05:54:48;60738.66;;;-144.06;43.07
11017;BME280;54687;50.800;6.772;2022-09-03T05:57:14;60774.28;;;-144.06;42.85
11017;BME280;54687;50.800;6.772;2022-09-03T05:59:41;60730.28;;;-144.06;42.70
11017;BME280;54687;50.800;6.772;2022-09-03T06:02:09;60749.16;;;-144.06;42.45
11017;BME280;54687;50.800;6.772;2022-09-03T06:04:36;60755.44;;;-144.06;42.21
11017;BME280;54687;50.800;6.772;2022-09-03T06:07:02;60690.47;;;-144.06;42.05
11017;BME280;54687;50.800;6.772;2022-09-03T06:09:29;60703.03;;;-144.06;41.99
11017;BME280;54687;50.800;6.772;2022-09-03T06:11:56;60747.06;;;-144.06;41.74
11017;BME280;54687;50.800;6.772;2022-09-03T06:14:22;60682.06;;;-144.06;41.63
11017;BME280;54687;50.800;6.772;2022-09-03T06:16:49;60673.69;;;-144.06;40.98
11017;BME280;54687;50.800;6.772;2022-09-03T06:19:18;60719.81;;;-144.06;40.78
11017;BME280;54687;50.800;6.772;2022-09-03T06:21:45;60717.72;;;-144.06;40.89
11017;BME280;54687;50.800;6.772;2022-09-03T06:24:14;60734.47;;;-144.06;40.68
11017;BME280;54687;50.800;6.772;2022-09-03T06:26:41;60713.50;;;-144.06;40.56
11017;BME280;54687;50.800;6.772;2022-09-03T06:29:07;60686.25;;;-144.06;40.34
11017;BME280;54687;50.800;6.772;2022-09-03T06:31:34;60665.31;;;-144.06;40.08
11017;BME280;54687;50.800;6.772;2022-09-03T06:34:01;60682.06;;;-144.06;40.12
11017;BME280;54687;50.800;6.772;2022-09-03T06:36:29;60696.75;;;-144.06;40.00
11017;BME280;54687;50.800;6.772;2022-09-03T06:38:57;60732.38;;;-144.06;39.97
11017;BME280;54687;50.800;6.772;2022-09-03T06:41:25;60700.94;;;-144.06;39.83
11017;BME280;54687;50.800;6.772;2022-09-03T06:43:54;60671.59;;;-144.06;39.83
11017;BME280;54687;50.800;6.772;2022-09-03T06:46:23;60688.38;;;-144.06;39.72
11017;BME280;54687;50.800;6.772;2022-09-03T06:48:50;60669.50;;;-144.06;39.44
11017;BME280;54687;50.800;6.772;2022-09-03T06:51:18;60682.06;;;-144.06;39.36
11017;BME280;54687;50.800;6.772;2022-09-03T06:53:49;60675.78;;;-144.06;39.19
11017;BME280;54687;50.800;6.772;2022-09-03T06:56:18;60682.06;;;-144.06;39.07
11017;BME280;54687;50.800;6.772;2022-09-03T06:58:47;60677.88;;;-144.06;39.05
11017;BME280;54687;50.800;6.772;2022-09-03T07:01:16;60709.31;;;-144.06;39.05
11017;BME280;54687;50.800;6.772;2022-09-03T07:03:47;60654.81;;;-144.06;38.70
11017;BME280;54687;50.800;6.772;2022-09-03T07:06:16;60703.03;;;-144.06;38.83
11017;BME280;54687;50.800;6.772;2022-09-03T07:08:44;60686.25;;;-144.06;38.86
11017;BME280;54687;50.800;6.772;2022-09-03T07:11:13;60669.50;;;-144.06;38.72
11017;BME280;54687;50.800;6.772;2022-09-03T07:13:43;60667.41;;;-144.06;38.77
11017;BME280;54687;50.800;6.772;2022-09-03T07:16:12;60669.50;;;-144.06;38.63
11017;BME280;54687;50.800;6.772;2022-09-03T07:18:39;60625.47;;;-144.06;38.31
11017;BME280;54687;50.800;6.772;2022-09-03T07:21:09;60646.44;;;-144.06;38.26
11017;BME280;54687;50.800;6.772;2022-09-03T07:23:37;60646.44;;;-144.06;38.09
11017;BME280;54687;50.800;6.772;2022-09-03T07:26:06;60707.22;;;-144.06;38.05
11017;BME280;54687;50.800;6.772;2022-09-03T07:28:36;60640.16;;;-144.06;37.73
11017;BME280;54687;50.800;6.772;2022-09-03T07:31:04;60623.38;;;-144.06;37.50
11017;BME280;54687;50.800;6.772;2022-09-03T07:33:31;60627.56;;;-144.06;37.46
11017;BME280;54687;50.800;6.772;2022-09-03T07:36:01;60627.56;;;-144.06;37.13
11017;BME280;54687;50.800;6.772;2022-09-03T07:38:28;60635.97;;;-144.06;36.89
11017;BME280;54687;50.800;6.772;2022-09-03T07:40:56;60581.47;;;-144.06;36.68
11017;BME280;54687;50.800;6.772;2022-09-03T07:43:24;60629.69;;;-144.06;36.89
11017;BME280;54687;50.800;6.772;2022-09-03T07:45:52;60631.78;;;-144.06;36.91
11017;BME280;54687;50.800;6.772;2022-09-03T07:48:20;60583.56;;;-144.06;36.96
11017;BME280;54687;50.800;6.772;2022-09-03T07:50:47;60606.63;;;-144.06;37.12
11017;BME280;54687;50.800;6.772;2022-09-03T07:53:14;60581.47;;;-144.06;37.74
11017;BME280;54687;50.800;6.772;2022-09-03T07:55:41;60652.72;;;-144.06;37.95
11017;BME280;54687;50.800;6.772;2022-09-03T07:58:08;60619.19;;;-144.06;37.97
11017;BME280;54687;50.800;6.772;2022-09-03T08:00:35;60635.97;;;-144.06;38.29
11017;BME280;54687;50.800;6.772;2022-09-03T08:03:03;60608.72;;;-144.06;38.40
11017;BME280;54687;50.800;6.772;2022-09-03T08:05:33;60606.63;;;-144.06;38.76
11017;BME280;54687;50.800;6.772;2022-09-03T08:08:00;60619.19;;;-144.06;38.82
11017;BME280;54687;50.800;6.772;2022-09-03T08:10:27;60631.78;;;-144.06;38.97
11017;BME280;54687;50.800;6.772;2022-09-03T08:12:56;60617.09;;;-144.06;39.08
11017;BME280;54687;50.800;6.772;2022-09-03T08:15:23;60606.63;;;-144.06;39.33
11017;BME280;54687;50.800;6.772;2022-09-03T08:17:49;60629.69;;;-144.06;39.27
11017;BME280;54687;50.800;6.772;2022-09-03T08:20:17;60648.53;;;-144.06;39.21
11017;BME280;54687;50.800;6.772;2022-09-03T08:22:44;60659.03;;;-144.06;39.35
11017;BME280;54687;50.800;6.772;2022-09-03T08:25:11;60650.63;;;-144.06;39.09
11017;BME280;54687;50.800;6.772;2022-09-03T08:27:38;60619.19;;;-144.06;38.92
11017;BME280;54687;50.800;6.772;2022-09-03T08:30:06;60619.19;;;-144.06;38.88
11017;BME280;54687;50.800;6.772;2022-09-03T08:32:36;60644.34;;;-144.06;38.98
11017;BME280;54687;50.800;6.772;2022-09-03T08:35:03;60642.25;;;-144.06;39.07
11017;BME280;54687;50.800;6.772;2022-09-03T08:37:31;60615.00;;;-144.06;38.83
11017;BME280;54687;50.800;6.772;2022-09-03T08:39:58;60615.00;;;-144.06;39.15
11017;BME280;54687;50.800;6.772;2022-09-03T08:42:36;60633.88;;;-144.06;38.91
11017;BME280;54687;50.800;6.772;2022-09-03T08:45:14;60625.47;;;-144.06;39.15
11017;BME280;54687;50.800;6.772;2022-09-03T08:47:44;60669.50;;;-144.06;39.00
11017;BME280;54687;50.800;6.772;2022-09-03T08:50:18;60606.63;;;-144.06;38.99
11017;BME280;54687;50.800;6.772;2022-09-03T08:52:51;60606.63;;;-144.06;38.80
11017;BME280;54687;50.800;6.772;2022-09-03T08:55:24;60623.38;;;-144.06;38.96
11017;BME280;54687;50.800;6.772;2022-09-03T08:57:55;60596.13;;;-144.06;38.66
11017;BME280;54687;50.800;6.772;2022-09-03T09:00:24;60591.94;;;-144.06;38.92
11017;BME280;54687;50.800;6.772;2022-09-03T09:03:04;60591.94;;;-144.06;38.97
11017;BME280;54687;50.800;6.772;2022-09-03T09:05:40;60623.38;;;-144.06;38.79
11017;BME280;54687;50.800;6.772;2022-09-03T09:08:16;60602.44;;;-144.06;39.27
11017;BME280;54687;50.800;6.772;2022-09-03T09:10:46;60598.22;;;-144.06;39.32
11017;BME280;54687;50.800;6.772;2022-09-03T09:13:19;60629.69;;;-144.06;39.66
11017;BME280;54687;50.800;6.772;2022-09-03T09:15:57;60606.63;;;-144.06;39.88
11017;BME280;54687;50.800;6.772;2022-09-03T09:18:38;60629.69;;;-144.06;40.07
11017;BME280;54687;50.800;6.772;2022-09-03T09:21:09;60573.09;;;-144.06;40.03
11017;BME280;54687;50.800;6.772;2022-09-03T09:23:43;60625.47;;;-144.06;40.00
11017;BME280;54687;50.800;6.772;2022-09-03T09:26:14;60623.38;;;-144.06;40.26
11017;BME280;54687;50.800;6.772;2022-09-03T09:28:42;60677.88;;;-144.06;40.41
11017;BME280;54687;50.800;6.772;2022-09-03T09:31:13;60621.28;;;-144.06;40.23
11017;BME280;54687;50.800;6.772;2022-09-03T09:33:41;60615.00;;;-144.06;40.43
11017;BME280;54687;50.800;6.772;2022-09-03T09:36:09;60619.19;;;-144.06;40.15
11017;BME280;54687;50.800;6.772;2022-09-03T09:38:42;60617.09;;;-144.06;40.17
11017;BME280;54687;50.800;6.772;2022-09-03T09:41:12;60621.28;;;-144.06;40.09
11017;BME280;54687;50.800;6.772;2022-09-03T09:43:40;60587.75;;;-144.06;40.02
11017;BME280;54687;50.800;6.772;2022-09-03T09:46:11;60608.72;;;-144.06;39.88
11017;BME280;54687;50.800;6.772;2022-09-03T09:48:46;60602.44;;;-144.06;39.61
11017;BME280;54687;50.800;6.772;2022-09-03T09:51:19;60610.81;;;-144.06;39.59
11017;BME280;54687;50.800;6.772;2022-09-03T09:53:59;60577.28;;;-144.06;39.70
11017;BME280;54687;50.800;6.772;2022-09-03T09:56:26;60627.56;;;-144.06;39.53
11017;BME280;54687;50.800;6.772;2022-09-03T09:59:01;60577.28;;;-144.06;39.63
11017;BME280;54687;50.800;6.772;2022-09-03T10:01:28;60602.44;;;-144.06;39.24
11017;BME280;54687;50.800;6.772;2022-09-03T10:03:58;60598.22;;;-144.06;39.18
11017;BME280;54687;50.800;6.772;2022-09-03T10:06:26;60560.50;;;-144.06;38.78
11017;BME280;54687;50.800;6.772;2022-09-03T10:09:14;60552.13;;;-144.06;38.37
11017;BME280;54687;50.800;6.772;2022-09-03T10:11:43;60499.72;;;-144.06;37.79
11017;BME280;54687;50.800;6.772;2022-09-03T10:14:17;60552.13;;;-144.06;37.81
11017;BME280;54687;50.800;6.772;2022-09-03T10:16:53;60510.22;;;-144.06;36.95
11017;BME280;54687;50.800;6.772;2022-09-03T10:19:27;60518.59;;;-144.06;37.26
11017;BME280;54687;50.800;6.772;2022-09-03T10:22:03;60526.97;;;-144.06;37.16
11017;BME280;54687;50.800;6.772;2022-09-03T10:24:40;60526.97;;;-144.06;37.31
11017;BME280;54687;50.800;6.772;2022-09-03T10:27:15;60539.53;;;-144.06;37.07
11017;BME280;54687;50.800;6.772;2022-09-03T10:29:43;60514.41;;;-144.06;37.50
11017;BME280;54687;50.800;6.772;2022-09-03T10:32:26;60455.72;;;-144.06;37.10
11017;BME280;54687;50.800;6.772;2022-09-03T10:35:03;60535.34;;;-144.06;37.16
11017;BME280;54687;50.800;6.772;2022-09-03T10:37:37;60529.06;;;-144.06;37.50
11017;BME280;54687;50.800;6.772;2022-09-03T10:40:23;60501.81;;;-144.06;37.46
11017;BME280;54687;50.800;6.772;2022-09-03T10:43:07;60526.97;;;-144.06;37.82
11017;BME280;54687;50.800;6.772;2022-09-03T10:45:48;60560.50;;;-144.06;38.12
11017;BME280;54687;50.800;6.772;2022-09-03T10:48:38;60516.50;;;-144.06;37.41
11017;BME280;54687;50.800;6.772;2022-09-03T10:51:12;60547.94;;;-144.06;37.36
11017;BME280;54687;50.800;6.772;2022-09-03T10:53:54;60522.78;;;-144.06;37.97
11017;BME280;54687;50.800;6.772;2022-09-03T10:56:31;60510.22;;;-144.06;37.99
11017;BME280;54687;50.800;6.772;2022-09-03T10:59:09;60476.66;;;-144.06;38.31
11017;BME280;54687;50.800;6.772;2022-09-03T11:01:46;60545.84;;;-144.06;38.38
11017;BME280;54687;50.800;6.772;2022-09-03T11:04:25;60472.47;;;-144.06;38.26
11017;BME280;54687;50.800;6.772;2022-09-03T11:06:56;60499.72;;;-144.06;37.93
11017;BME280;54687;50.800;6.772;2022-09-03T11:09:30;60459.91;;;-144.06;37.78
11017;BME280;54687;50.800;6.772;2022-09-03T11:12:04;60455.72;;;-144.06;37.15
11017;BME280;54687;50.800;6.772;2022-09-03T11:14:35;60478.78;;;-144.06;37.41
11017;BME280;54687;50.800;6.772;2022-09-03T11:17:08;60487.16;;;-144.06;37.11
11017;BME280;54687;50.800;6.772;2022-09-03T11:19:41;60459.91;;;-144.06;37.37
11017;BME280;54687;50.800;6.772;2022-09-03T11:22:13;60445.22;;;-144.06;37.41
11017;BME280;54687;50.800;6.772;2022-09-03T11:24:42;60485.06;;;-144.06;37.58
11017;BME280;54687;50.800;6.772;2022-09-03T11:27:22;60518.59;;;-144.06;37.40
11017;BME280;54687;50.800;6.772;2022-09-03T11:29:56;60506.00;;;-144.06;37.74
11017;BME280;54687;50.800;6.772;2022-09-03T11:32:35;60491.34;;;-144.06;37.73
11017;BME280;54687;50.800;6.772;2022-09-03T11:35:14;60493.44;;;-144.06;37.96
11017;BME280;54687;50.800;6.772;2022-09-03T11:37:50;60495.53;;;-144.06;37.99
11017;BME280;54687;50.800;6.772;2022-09-03T11:40:28;60447.31;;;-144.06;38.05
11017;BME280;54687;50.800;6.772;2022-09-03T11:43:06;60485.06;;;-144.06;38.33
11017;BME280;54687;50.800;6.772;2022-09-03T11:45:36;60470.38;;;-144.06;38.39
11017;BME280;54687;50.800;6.772;2022-09-03T11:48:17;60470.38;;;-144.06;38.17
11017;BME280;54687;50.800;6.772;2022-09-03T11:50:52;60501.81;;;-144.06;38.07
11017;BME280;54687;50.800;6.772;2022-09-03T11:53:24;60480.88;;;-144.06;37.85
11017;BME280;54687;50.800;6.772;2022-09-03T11:55:58;60482.97;;;-144.06;38.08
11017;BME280;54687;50.800;6.772;2022-09-03T11:58:30;60493.44;;;-144.06;38.02
11017;BME280;54687;50.800;6.772;2022-09-03T12:01:01;60510.22;;;-144.06;37.85
11017;BME280;54687;50.800;6.772;2022-09-03T12:03:37;60497.63;;;-144.06;37.56
11017;BME280;54687;50.800;6.772;2022-09-03T12:06:21;60489.25;;;-144.06;37.33
11017;BME280;54687;50.800;6.772;2022-09-03T12:11:55;60464.09;;;-144.06;37.75
11017;BME280;54687;50.800;6.772;2022-09-03T12:14:31;60464.09;;;-144.06;37.65
11017;BME280;54687;50.800;6.772;2022-09-03T12:17:10;60493.44;;;-144.06;37.68
11017;BME280;54687;50.800;6.772;2022-09-03T12:19:44;60451.53;;;-144.06;38.03
11017;BME280;54687;50.800;6.772;2022-09-03T12:22:17;60485.06;;;-144.06;37.67
11017;BME280;54687;50.800;6.772;2022-09-03T12:24:44;60451.53;;;-144.06;37.81
11017;BME280;54687;50.800;6.772;2022-09-03T12:27:15;60426.38;;;-144.06;37.79
11017;BME280;54687;50.800;6.772;2022-09-03T12:29:55;60506.00;;;-144.06;37.48
11017;BME280;54687;50.800;6.772;2022-09-03T12:32:25;60476.66;;;-144.06;37.34
11017;BME280;54687;50.800;6.772;2022-09-03T12:34:54;60480.88;;;-144.06;37.59
11017;BME280;54687;50.800;6.772;2022-09-03T12:37:22;60468.28;;;-144.06;37.32
11017;BME280;54687;50.800;6.772;2022-09-03T12:39:51;60489.25;;;-144.06;37.55
11017;BME280;54687;50.800;6.772;2022-09-03T12:42:22;60462.00;;;-144.06;37.60
11017;BME280;54687;50.800;6.772;2022-09-03T12:44:49;60413.78;;;-144.06;37.60
11017;BME280;54687;50.800;6.772;2022-09-03T12:47:19;60476.66;;;-144.06;37.62
11017;BME280;54687;50.800;6.772;2022-09-03T12:49:48;60501.81;;;-144.06;37.43
11017;BME280;54687;50.800;6.772;2022-09-03T12:52:19;60447.31;;;-144.06;37.35
11017;BME280;54687;50.800;6.772;2022-09-03T12:54:49;60489.25;;;-144.06;37.19
11017;BME280;54687;50.800;6.772;2022-09-03T12:57:21;60468.28;;;-144.06;37.28
11017;BME280;54687;50.800;6.772;2022-09-03T12:59:55;60470.38;;;-144.06;37.05
11017;BME280;54687;50.800;6.772;2022-09-03T13:02:26;60420.09;;;-144.06;36.99
11017;BME280;54687;50.800;6.772;2022-09-03T13:04:55;60459.91;;;-144.06;37.02